Time,TemperatureF,DewpointF,PressureIn,WindDirection,WindDirectionDegrees,WindSpeedMPH,WindSpeedGustMPH,Humidity,HourlyPrecipIn,Conditions,Clouds,dailyrainin,SoftwareType,DateUTC
2013-10-31 00:01:00,41.4,29.7,29.74,SSE,158,0.0,3.0,63,0.00,,,0.00,WUHU216HW,2013-10-31 06:01:00,
2013-10-31 00:06:00,41.2,29.5,29.74,NNW,338,0.0,3.0,63,0.00,,,0.00,WUHU216HW,2013-10-31 06:06:00,
2013-10-31 00:11:00,41.0,29.8,29.74,NNE,23,1.0,3.0,64,0.00,,,0.00,WUHU216HW,2013-10-31 06:11:00,
2013-10-31 00:16:00,41.2,30.0,29.74,ENE,68,3.0,5.0,64,0.00,,,0.00,WUHU216HW,2013-10-31 06:16:00,
2013-10-31 00:21:00,41.4,29.7,29.74,NW,315,0.0,5.0,63,0.00,,,0.00,WUHU216HW,2013-10-31 06:21:00,
2013-10-31 00:26:00,41.2,29.5,29.74,NNE,23,1.0,4.0,63,0.00,,,0.00,WUHU216HW,2013-10-31 06:26:00,
2013-10-31 00:31:00,41.2,29.5,29.74,NW,315,2.0,2.0,63,0.00,,,0.00,WUHU216HW,2013-10-31 06:31:00,
2013-10-31 00:36:00,41.4,29.7,29.74,ENE,68,1.0,2.0,63,0.00,,,0.00,WUHU216HW,2013-10-31 06:36:00,
2013-10-31 00:41:00,41.2,29.2,29.74,WNW,293,0.0,1.0,62,0.00,,,0.00,WUHU216HW,2013-10-31 06:41:00,
2013-10-31 00:46:00,40.9,28.8,29.74,NW,315,0.0,1.0,62,0.00,,,0.00,WUHU216HW,2013-10-31 06:46:00,
2013-10-31 00:51:00,40.7,29.1,29.74,ENE,68,0.0,0.0,63,0.00,,,0.00,WUHU216HW,2013-10-31 06:51:00,
2013-10-31 00:56:00,40.3,28.7,29.75,ENE,68,0.0,0.0,63,0.00,,,0.00,WUHU216HW,2013-10-31 06:56:00,
2013-10-31 01:01:00,40.1,28.9,29.75,ENE,68,0.0,2.0,64,0.00,,,0.00,WUHU216HW,2013-10-31 07:01:00,
2013-10-31 01:06:00,40.0,28.4,29.75,SE,135,0.0,2.0,63,0.00,,,0.00,WUHU216HW,2013-10-31 07:06:00,
2013-10-31 01:11:00,39.8,28.2,29.75,ESE,113,0.0,0.0,63,0.00,,,0.00,WUHU216HW,2013-10-31 07:11:00,
2013-10-31 01:16:00,39.4,27.8,29.75,ENE,68,1.0,1.0,63,0.00,,,0.00,WUHU216HW,2013-10-31 07:16:00,
2013-10-31 01:21:00,39.2,28.4,29.76,ENE,68,0.0,1.0,65,0.00,,,0.00,WUHU216HW,2013-10-31 07:21:00,
2013-10-31 01:26:00,39.1,28.5,29.76,ESE,113,0.0,1.0,66,0.00,,,0.00,WUHU216HW,2013-10-31 07:26:00,
2013-10-31 01:31:00,38.9,27.6,29.76,ESE,113,0.0,1.0,64,0.00,,,0.00,WUHU216HW,2013-10-31 07:31:00,
2013-10-31 01:36:00,38.5,27.7,29.76,SSW,203,0.0,1.0,65,0.00,,,0.00,WUHU216HW,2013-10-31 07:36:00,
2013-10-31 01:41:00,38.5,27.7,29.76,WSW,248,0.0,1.0,65,0.00,,,0.00,WUHU216HW,2013-10-31 07:41:00,
2013-10-31 01:46:00,38.3,28.7,29.76,ESE,113,0.0,1.0,68,0.00,,,0.00,WUHU216HW,2013-10-31 07:46:00,
2013-10-31 01:51:00,38.2,27.7,29.77,South,180,0.0,0.0,66,0.00,,,0.00,WUHU216HW,2013-10-31 07:51:00,
2013-10-31 01:56:00,38.0,27.6,29.77,ESE,113,0.0,1.0,66,0.00,,,0.00,WUHU216HW,2013-10-31 07:56:00,
2013-10-31 02:01:00,37.8,27.5,29.77,ESE,113,0.0,1.0,66,0.00,,,0.00,WUHU216HW,2013-10-31 08:01:00,
2013-10-31 02:06:00,38.0,28.0,29.77,SSW,203,0.0,0.0,67,0.00,,,0.00,WUHU216HW,2013-10-31 08:06:00,
2013-10-31 02:11:00,38.2,28.2,29.77,ENE,68,0.0,0.0,67,0.00,,,0.00,WUHU216HW,2013-10-31 08:11:00,
2013-10-31 02:17:00,38.2,28.2,29.77,East,90,0.0,0.0,67,0.00,,,0.00,WUHU216HW,2013-10-31 08:17:00,
2013-10-31 02:21:00,38.3,27.9,29.77,East,90,0.0,0.0,66,0.00,,,0.00,WUHU216HW,2013-10-31 08:21:00,
2013-10-31 02:26:00,38.3,27.9,29.78,ESE,113,0.0,0.0,66,0.00,,,0.00,WUHU216HW,2013-10-31 08:26:00,
2013-10-31 02:31:00,38.2,27.7,29.78,ESE,113,0.0,0.0,66,0.00,,,0.00,WUHU216HW,2013-10-31 08:31:00,
2013-10-31 02:36:00,38.0,27.6,29.78,East,90,0.0,0.0,66,0.00,,,0.00,WUHU216HW,2013-10-31 08:36:00,
2013-10-31 02:41:00,38.0,28.0,29.78,ENE,68,0.0,1.0,67,0.00,,,0.00,WUHU216HW,2013-10-31 08:41:00,
2013-10-31 02:46:00,37.8,28.2,29.77,East,90,1.0,1.0,68,0.00,,,0.00,WUHU216HW,2013-10-31 08:46:00,
2013-10-31 02:51:00,37.6,28.0,29.78,ESE,113,1.0,1.0,68,0.00,,,0.00,WUHU216HW,2013-10-31 08:51:00,
2013-10-31 02:56:00,37.3,27.3,29.77,SSW,203,0.0,1.0,67,0.00,,,0.00,WUHU216HW,2013-10-31 08:56:00,
2013-10-31 03:01:00,37.1,27.2,29.77,ENE,68,0.0,2.0,67,0.00,,,0.00,WUHU216HW,2013-10-31 09:01:00,
2013-10-31 03:06:00,37.1,27.6,29.77,East,90,0.0,2.0,68,0.00,,,0.00,WUHU216HW,2013-10-31 09:06:00,
2013-10-31 03:11:00,36.9,27.0,29.77,NE,45,0.0,1.0,67,0.00,,,0.00,WUHU216HW,2013-10-31 09:11:00,
2013-10-31 03:16:00,36.7,28.3,29.77,ENE,68,0.0,1.0,71,0.00,,,0.00,WUHU216HW,2013-10-31 09:16:00,
2013-10-31 03:21:00,36.7,28.3,29.77,ESE,113,0.0,2.0,71,0.00,,,0.00,WUHU216HW,2013-10-31 09:21:00,
2013-10-31 03:26:00,36.5,27.4,29.77,SW,225,0.0,2.0,69,0.00,,,0.00,WUHU216HW,2013-10-31 09:26:00,
2013-10-31 03:31:00,36.4,27.9,29.77,SE,135,0.0,1.0,71,0.00,,,0.00,WUHU216HW,2013-10-31 09:31:00,
2013-10-31 03:36:00,36.4,27.5,29.77,East,90,3.0,4.0,70,0.00,,,0.00,WUHU216HW,2013-10-31 09:36:00,
2013-10-31 03:41:00,36.4,27.9,29.77,ENE,68,4.0,4.0,71,0.00,,,0.00,WUHU216HW,2013-10-31 09:41:00,
2013-10-31 03:46:00,36.5,28.7,29.77,ENE,68,3.0,4.0,73,0.00,,,0.00,WUHU216HW,2013-10-31 09:46:00,
2013-10-31 03:52:00,36.7,28.5,29.77,ENE,68,0.0,4.0,72,0.00,,,0.00,WUHU216HW,2013-10-31 09:52:00,
2013-10-31 03:57:00,36.9,28.7,29.76,ENE,68,2.0,3.0,72,0.00,,,0.00,WUHU216HW,2013-10-31 09:57:00,
2013-10-31 04:02:00,36.9,28.5,29.76,WSW,248,1.0,3.0,71,0.00,,,0.00,WUHU216HW,2013-10-31 10:02:00,
2013-10-31 04:07:00,36.7,28.3,29.76,North,0,0.0,3.0,71,0.00,,,0.00,WUHU216HW,2013-10-31 10:07:00,
2013-10-31 04:12:00,37.1,28.6,29.76,NNW,338,1.0,3.0,71,0.00,,,0.00,WUHU216HW,2013-10-31 10:12:00,
2013-10-31 04:17:00,37.1,28.6,29.76,NW,315,1.0,3.0,71,0.00,,,0.00,WUHU216HW,2013-10-31 10:17:00,
2013-10-31 04:22:00,37.3,28.1,29.76,NW,315,0.0,3.0,69,0.00,,,0.00,WUHU216HW,2013-10-31 10:22:00,
2013-10-31 04:27:00,37.3,28.1,29.76,NNW,338,0.0,1.0,69,0.00,,,0.00,WUHU216HW,2013-10-31 10:27:00,
2013-10-31 04:32:00,37.1,27.9,29.76,NE,45,1.0,2.0,69,0.00,,,0.00,WUHU216HW,2013-10-31 10:32:00,
2013-10-31 04:37:00,37.4,28.3,29.76,ENE,68,1.0,3.0,69,0.00,,,0.00,WUHU216HW,2013-10-31 10:37:00,
2013-10-31 04:42:00,37.6,28.0,29.76,NNE,23,0.0,3.0,68,0.00,,,0.00,WUHU216HW,2013-10-31 10:42:00,
2013-10-31 04:47:00,37.8,27.8,29.76,NNE,23,0.0,1.0,67,0.00,,,0.00,WUHU216HW,2013-10-31 10:47:00,
2013-10-31 04:52:00,37.8,27.8,29.76,NNE,23,2.0,2.0,67,0.00,,,0.00,WUHU216HW,2013-10-31 10:52:00,
2013-10-31 04:57:00,38.3,27.5,29.76,North,0,1.0,3.0,65,0.00,,,0.00,WUHU216HW,2013-10-31 10:57:00,
2013-10-31 05:02:00,38.7,27.5,29.77,NW,315,2.0,3.0,64,0.00,,,0.00,WUHU216HW,2013-10-31 11:02:00,
2013-10-31 05:07:00,38.9,27.3,29.76,NNW,338,1.0,8.0,63,0.00,,,0.00,WUHU216HW,2013-10-31 11:07:00,
2013-10-31 05:12:00,39.1,27.5,29.76,North,0,1.0,8.0,63,0.00,,,0.00,WUHU216HW,2013-10-31 11:12:00,
2013-10-31 05:17:00,39.2,27.6,29.77,WNW,293,3.0,7.0,63,0.00,,,0.00,WUHU216HW,2013-10-31 11:17:00,
2013-10-31 05:22:00,39.2,27.6,29.77,NW,315,1.0,7.0,63,0.00,,,0.00,WUHU216HW,2013-10-31 11:22:00,
2013-10-31 05:27:00,39.2,27.6,29.78,WSW,248,2.0,4.0,63,0.00,,,0.00,WUHU216HW,2013-10-31 11:27:00,
2013-10-31 05:32:00,39.1,27.5,29.78,West,270,0.0,3.0,63,0.00,,,0.00,WUHU216HW,2013-10-31 11:32:00,
2013-10-31 05:37:00,38.7,27.5,29.79,ENE,68,1.0,2.0,64,0.00,,,0.00,WUHU216HW,2013-10-31 11:37:00,
2013-10-31 05:42:00,38.3,27.2,29.79,ESE,113,1.0,1.0,64,0.00,,,0.00,WUHU216HW,2013-10-31 11:42:00,
2013-10-31 05:47:00,38.0,27.2,29.79,ESE,113,1.0,1.0,65,0.00,,,0.00,WUHU216HW,2013-10-31 11:47:00,
2013-10-31 05:52:00,37.6,26.9,29.79,NE,45,0.0,1.0,65,0.00,,,0.00,WUHU216HW,2013-10-31 11:52:00,
2013-10-31 05:57:00,37.4,27.1,29.79,ENE,68,1.0,1.0,66,0.00,,,0.00,WUHU216HW,2013-10-31 11:57:00,
2013-10-31 06:02:00,37.4,26.7,29.79,NNE,23,2.0,2.0,65,0.00,,,0.00,WUHU216HW,2013-10-31 12:02:00,
2013-10-31 06:07:00,37.3,26.9,29.79,North,0,0.0,2.0,66,0.00,,,0.00,WUHU216HW,2013-10-31 12:07:00,
2013-10-31 06:12:00,37.8,27.5,29.79,WNW,293,0.0,2.0,66,0.00,,,0.00,WUHU216HW,2013-10-31 12:12:00,
2013-10-31 06:17:00,37.8,27.5,29.80,SSW,203,1.0,3.0,66,0.00,,,0.00,WUHU216HW,2013-10-31 12:17:00,
2013-10-31 06:22:00,37.4,27.1,29.80,SSE,158,2.0,3.0,66,0.00,,,0.00,WUHU216HW,2013-10-31 12:22:00,
2013-10-31 06:27:00,37.3,26.6,29.81,SSE,158,0.0,2.0,65,0.00,,,0.00,WUHU216HW,2013-10-31 12:27:00,
2013-10-31 06:32:00,37.1,26.4,29.81,SSE,158,0.0,2.0,65,0.00,,,0.00,WUHU216HW,2013-10-31 12:32:00,
2013-10-31 06:37:00,36.9,26.2,29.81,SE,135,0.0,2.0,65,0.00,,,0.00,WUHU216HW,2013-10-31 12:37:00,
2013-10-31 06:42:00,36.5,25.9,29.81,ESE,113,0.0,2.0,65,0.00,,,0.00,WUHU216HW,2013-10-31 12:42:00,
2013-10-31 06:47:00,36.4,26.5,29.81,ESE,113,0.0,1.0,67,0.00,,,0.00,WUHU216HW,2013-10-31 12:47:00,
2013-10-31 06:52:00,36.2,25.9,29.81,ESE,113,0.0,1.0,66,0.00,,,0.00,WUHU216HW,2013-10-31 12:52:00,
2013-10-31 06:57:00,35.8,25.6,29.82,ESE,113,0.0,1.0,66,0.00,,,0.00,WUHU216HW,2013-10-31 12:57:00,
2013-10-31 07:02:00,35.6,25.4,29.82,ENE,68,1.0,1.0,66,0.00,,,0.00,WUHU216HW,2013-10-31 13:02:00,
2013-10-31 07:07:00,35.6,25.4,29.82,East,90,0.0,1.0,66,0.00,,,0.00,WUHU216HW,2013-10-31 13:07:00,
2013-10-31 07:12:00,35.5,25.2,29.82,ESE,113,1.0,1.0,66,0.00,,,0.00,WUHU216HW,2013-10-31 13:12:00,
2013-10-31 07:17:00,35.6,25.4,29.82,ESE,113,1.0,1.0,66,0.00,,,0.00,WUHU216HW,2013-10-31 13:17:00,
2013-10-31 07:22:00,35.6,25.7,29.82,ENE,68,0.0,1.0,67,0.00,,,0.00,WUHU216HW,2013-10-31 13:22:00,
2013-10-31 07:27:00,35.3,25.0,29.82,East,90,0.0,2.0,66,0.00,,,0.00,WUHU216HW,2013-10-31 13:27:00,
2013-10-31 07:32:00,35.1,25.2,29.83,ESE,113,2.0,2.0,67,0.00,,,0.00,WUHU216HW,2013-10-31 13:32:00,
2013-10-31 07:37:00,34.9,25.0,29.83,ENE,68,2.0,3.0,67,0.00,,,0.00,WUHU216HW,2013-10-31 13:37:00,
2013-10-31 07:42:00,34.9,25.4,29.83,ESE,113,3.0,4.0,68,0.00,,,0.00,WUHU216HW,2013-10-31 13:42:00,
2013-10-31 07:47:00,34.9,25.4,29.83,ESE,113,0.0,4.0,68,0.00,,,0.00,WUHU216HW,2013-10-31 13:47:00,
2013-10-31 07:52:00,34.9,25.4,29.83,ESE,113,0.0,3.0,68,0.00,,,0.00,WUHU216HW,2013-10-31 13:52:00,
2013-10-31 07:57:00,34.9,25.0,29.83,ESE,113,1.0,1.0,67,0.00,,,0.00,WUHU216HW,2013-10-31 13:57:00,
2013-10-31 08:02:00,35.1,25.2,29.84,ESE,113,0.0,1.0,67,0.00,,,0.00,WUHU216HW,2013-10-31 14:02:00,
2013-10-31 08:07:00,35.1,25.2,29.84,SE,135,0.0,1.0,67,0.00,,,0.00,WUHU216HW,2013-10-31 14:07:00,
2013-10-31 08:12:00,35.5,25.6,29.84,East,90,2.0,2.0,67,0.00,,,0.00,WUHU216HW,2013-10-31 14:12:00,
2013-10-31 08:17:00,36.0,26.5,29.84,ENE,68,1.0,3.0,68,0.00,,,0.00,WUHU216HW,2013-10-31 14:17:00,
2013-10-31 08:22:00,36.4,26.5,29.84,ENE,68,1.0,3.0,67,0.00,,,0.00,WUHU216HW,2013-10-31 14:22:00,
2013-10-31 08:27:00,36.9,27.0,29.84,ENE,68,1.0,3.0,67,0.00,,,0.00,WUHU216HW,2013-10-31 14:27:00,
2013-10-31 08:32:00,37.6,27.6,29.84,East,90,3.0,3.0,67,0.00,,,0.00,WUHU216HW,2013-10-31 14:32:00,
2013-10-31 08:37:00,38.0,27.2,29.84,ESE,113,1.0,3.0,65,0.00,,,0.00,WUHU216HW,2013-10-31 14:37:00,
2013-10-31 08:42:00,39.1,27.8,29.84,East,90,2.0,3.0,64,0.00,,,0.00,WUHU216HW,2013-10-31 14:42:00,
2013-10-31 08:47:00,41.4,29.7,29.84,ESE,113,1.0,4.0,63,0.00,,,0.00,WUHU216HW,2013-10-31 14:47:00,
2013-10-31 08:52:00,43.2,29.8,29.84,ENE,68,1.0,4.0,59,0.00,,,0.00,WUHU216HW,2013-10-31 14:52:00,
2013-10-31 08:57:00,44.3,29.5,29.85,ENE,68,1.0,3.0,56,0.00,,,0.00,WUHU216HW,2013-10-31 14:57:00,
2013-10-31 09:02:00,45.0,30.3,29.85,East,90,1.0,3.0,56,0.00,,,0.00,WUHU216HW,2013-10-31 15:02:00,
2013-10-31 09:07:00,45.4,29.6,29.84,NE,45,1.0,3.0,54,0.00,,,0.00,WUHU216HW,2013-10-31 15:07:00,
2013-10-31 09:12:00,45.5,29.8,29.85,ENE,68,1.0,3.0,54,0.00,,,0.00,WUHU216HW,2013-10-31 15:12:00,
2013-10-31 09:17:00,45.9,30.2,29.85,NNE,23,0.0,3.0,54,0.00,,,0.00,WUHU216HW,2013-10-31 15:17:00,
2013-10-31 09:22:00,46.1,29.8,29.85,NE,45,2.0,3.0,53,0.00,,,0.00,WUHU216HW,2013-10-31 15:22:00,
2013-10-31 09:27:00,46.3,29.1,29.85,NNE,23,2.0,3.0,51,0.00,,,0.00,WUHU216HW,2013-10-31 15:27:00,
2013-10-31 09:32:00,46.4,29.7,29.85,NE,45,1.0,4.0,52,0.00,,,0.00,WUHU216HW,2013-10-31 15:32:00,
2013-10-31 09:37:00,46.8,29.6,29.85,WNW,293,3.0,4.0,51,0.00,,,0.00,WUHU216HW,2013-10-31 15:37:00,
2013-10-31 09:42:00,47.3,30.1,29.85,NW,315,2.0,3.0,51,0.00,,,0.00,WUHU216HW,2013-10-31 15:42:00,
2013-10-31 09:47:00,48.2,29.9,29.85,North,0,1.0,4.0,49,0.00,,,0.00,WUHU216HW,2013-10-31 15:47:00,
2013-10-31 09:52:00,49.0,30.6,29.85,NNW,338,3.0,4.0,49,0.00,,,0.00,WUHU216HW,2013-10-31 15:52:00,
2013-10-31 09:57:00,49.3,29.9,29.85,NE,45,4.0,4.0,47,0.00,,,0.00,WUHU216HW,2013-10-31 15:57:00,
2013-10-31 10:02:00,48.6,28.6,29.84,North,0,6.0,7.0,46,0.00,,,0.00,WUHU216HW,2013-10-31 16:02:00,
2013-10-31 10:07:00,48.1,28.1,29.84,NNE,23,3.0,7.0,46,0.00,,,0.00,WUHU216HW,2013-10-31 16:07:00,
2013-10-31 10:12:00,48.1,28.6,29.84,NW,315,5.0,6.0,47,0.00,,,0.00,WUHU216HW,2013-10-31 16:12:00,
2013-10-31 10:17:00,49.0,29.5,29.84,NW,315,0.0,6.0,47,0.00,,,0.00,WUHU216HW,2013-10-31 16:17:00,
2013-10-31 10:22:00,49.9,29.3,29.84,NW,315,3.0,6.0,45,0.00,,,0.00,WUHU216HW,2013-10-31 16:22:00,
2013-10-31 10:27:00,50.8,30.6,29.84,NW,315,3.0,5.0,46,0.00,,,0.00,WUHU216HW,2013-10-31 16:27:00,
2013-10-31 10:32:00,51.3,30.6,29.84,NW,315,3.0,5.0,45,0.00,,,0.00,WUHU216HW,2013-10-31 16:32:00,
2013-10-31 10:37:00,50.8,29.5,29.84,WNW,293,3.0,5.0,44,0.00,,,0.00,WUHU216HW,2013-10-31 16:37:00,
2013-10-31 10:42:00,50.9,29.7,29.85,NNW,338,2.0,6.0,44,0.00,,,0.00,WUHU216HW,2013-10-31 16:42:00,
2013-10-31 10:47:00,50.6,29.3,29.85,NW,315,2.0,6.0,44,0.00,,,0.00,WUHU216HW,2013-10-31 16:47:00,
2013-10-31 10:52:00,50.0,28.9,29.85,NW,315,3.0,5.0,44,0.00,,,0.00,WUHU216HW,2013-10-31 16:52:00,
2013-10-31 10:57:00,50.6,29.9,29.85,South,180,1.0,5.0,45,0.00,,,0.00,WUHU216HW,2013-10-31 16:57:00,
2013-10-31 11:03:00,50.8,29.0,29.84,NE,45,3.0,7.0,43,0.00,,,0.00,WUHU216HW,2013-10-31 17:03:00,
2013-10-31 11:08:00,50.2,29.1,29.84,NW,315,1.0,7.0,44,0.00,,,0.00,WUHU216HW,2013-10-31 17:08:00,
2013-10-31 11:13:00,51.7,30.3,29.84,WNW,293,2.0,6.0,44,0.00,,,0.00,WUHU216HW,2013-10-31 17:13:00,
2013-10-31 11:18:00,52.0,29.5,29.84,NW,315,3.0,6.0,42,0.00,,,0.00,WUHU216HW,2013-10-31 17:18:00,
2013-10-31 11:22:00,52.4,30.4,29.84,West,270,2.0,7.0,43,0.00,,,0.00,WUHU216HW,2013-10-31 17:22:00,
2013-10-31 11:27:00,53.5,30.2,29.84,NW,315,5.0,10.0,41,0.00,,,0.00,WUHU216HW,2013-10-31 17:27:00,
2013-10-31 11:32:00,54.4,28.4,29.83,NW,315,6.0,10.0,37,0.00,,,0.00,WUHU216HW,2013-10-31 17:32:00,
2013-10-31 11:37:00,54.4,27.7,29.83,North,0,4.0,12.0,36,0.00,,,0.00,WUHU216HW,2013-10-31 17:37:00,
2013-10-31 11:42:00,54.5,28.6,29.83,NW,315,7.0,12.0,37,0.00,,,0.00,WUHU216HW,2013-10-31 17:42:00,
2013-10-31 11:47:00,54.7,28.8,29.83,NW,315,4.0,11.0,37,0.00,,,0.00,WUHU216HW,2013-10-31 17:47:00,
2013-10-31 11:52:00,55.3,28.5,29.83,West,270,3.0,9.0,36,0.00,,,0.00,WUHU216HW,2013-10-31 17:52:00,
2013-10-31 11:57:00,55.4,27.3,29.83,WNW,293,7.0,9.0,34,0.00,,,0.00,WUHU216HW,2013-10-31 17:57:00,
2013-10-31 12:02:00,55.4,28.7,29.82,North,0,8.0,12.0,36,0.00,,,0.00,WUHU216HW,2013-10-31 18:02:00,
2013-10-31 12:08:00,55.3,27.8,29.82,North,0,4.0,12.0,35,0.00,,,0.00,WUHU216HW,2013-10-31 18:08:00,
2013-10-31 12:13:00,55.1,27.0,29.82,NW,315,4.0,11.0,34,0.00,,,0.00,WUHU216HW,2013-10-31 18:13:00,
2013-10-31 12:18:00,55.3,27.2,29.82,WNW,293,5.0,12.0,34,0.00,,,0.00,WUHU216HW,2013-10-31 18:18:00,
2013-10-31 12:23:00,55.6,26.7,29.81,WNW,293,8.0,12.0,33,0.00,,,0.00,WUHU216HW,2013-10-31 18:23:00,
2013-10-31 12:28:00,56.2,26.6,29.81,NNW,338,7.0,12.0,32,0.00,,,0.00,WUHU216HW,2013-10-31 18:28:00,
2013-10-31 12:33:00,56.3,26.0,29.81,NNW,338,7.0,10.0,31,0.00,,,0.00,WUHU216HW,2013-10-31 18:33:00,
2013-10-31 12:38:00,56.2,26.6,29.81,NNW,338,6.0,14.0,32,0.00,,,0.00,WUHU216HW,2013-10-31 18:38:00,
2013-10-31 12:43:00,56.3,26.7,29.80,NW,315,12.0,14.0,32,0.00,,,0.00,WUHU216HW,2013-10-31 18:43:00,
2013-10-31 12:47:00,56.0,26.4,29.80,NNW,338,9.0,12.0,32,0.00,,,0.00,WUHU216HW,2013-10-31 18:47:00,
2013-10-31 12:52:00,56.2,26.6,29.80,North,0,12.0,12.0,32,0.00,,,0.00,WUHU216HW,2013-10-31 18:52:00,
2013-10-31 12:57:00,56.2,27.3,29.80,SW,225,4.0,12.0,33,0.00,,,0.00,WUHU216HW,2013-10-31 18:57:00,
2013-10-31 13:02:00,56.3,26.7,29.80,WNW,293,7.0,12.0,32,0.00,,,0.00,WUHU216HW,2013-10-31 19:02:00,
2013-10-31 13:07:00,57.1,27.4,29.79,WSW,248,5.0,12.0,32,0.00,,,0.00,WUHU216HW,2013-10-31 19:07:00,
2013-10-31 13:12:00,57.6,27.1,29.79,WNW,293,9.0,13.0,31,0.00,,,0.00,WUHU216HW,2013-10-31 19:12:00,
2013-10-31 13:17:00,58.0,27.5,29.79,NNW,338,5.0,13.0,31,0.00,,,0.00,WUHU216HW,2013-10-31 19:17:00,
2013-10-31 13:23:00,58.3,27.1,29.79,West,270,2.0,11.0,30,0.00,,,0.00,WUHU216HW,2013-10-31 19:23:00,
2013-10-31 13:27:00,58.3,26.1,29.79,NNW,338,8.0,11.0,29,0.00,,,0.00,WUHU216HW,2013-10-31 19:27:00,
2013-10-31 13:32:00,58.3,27.1,29.78,WSW,248,6.0,9.0,30,0.00,,,0.00,WUHU216HW,2013-10-31 19:32:00,
2013-10-31 13:37:00,58.5,27.3,29.78,WNW,293,4.0,11.0,30,0.00,,,0.00,WUHU216HW,2013-10-31 19:37:00,
2013-10-31 13:42:00,58.7,27.4,29.77,NW,315,8.0,11.0,30,0.00,,,0.00,WUHU216HW,2013-10-31 19:42:00,
2013-10-31 13:47:00,59.0,27.7,29.77,NW,315,7.0,11.0,30,0.00,,,0.00,WUHU216HW,2013-10-31 19:47:00,
2013-10-31 13:52:00,59.4,27.0,29.77,NW,315,10.0,15.0,29,0.00,,,0.00,WUHU216HW,2013-10-31 19:52:00,
2013-10-31 13:54:00,59.2,25.9,29.78,NW,315,8.0,15.0,28,0.00,,,0.00,WUHU216HW,2013-10-31 19:54:00,
2013-10-31 13:59:00,58.9,26.6,29.77,North,0,9.0,15.0,29,0.00,,,0.00,WUHU216HW,2013-10-31 19:59:00,
2013-10-31 14:04:00,58.9,26.6,29.77,SW,225,7.0,11.0,29,0.00,,,0.00,WUHU216HW,2013-10-31 20:04:00,
2013-10-31 14:09:00,58.9,25.7,29.77,North,0,4.0,11.0,28,0.00,,,0.00,WUHU216HW,2013-10-31 20:09:00,
2013-10-31 14:14:00,58.5,27.3,29.77,WNW,293,6.0,11.0,30,0.00,,,0.00,WUHU216HW,2013-10-31 20:14:00,
2013-10-31 14:19:00,58.5,26.3,29.76,WNW,293,10.0,13.0,29,0.00,,,0.00,WUHU216HW,2013-10-31 20:19:00,
2013-10-31 14:24:00,58.7,27.4,29.76,NW,315,5.0,13.0,30,0.00,,,0.00,WUHU216HW,2013-10-31 20:24:00,
2013-10-31 14:29:00,58.7,27.4,29.76,WNW,293,5.0,9.0,30,0.00,,,0.00,WUHU216HW,2013-10-31 20:29:00,
2013-10-31 14:34:00,58.7,27.4,29.76,NNW,338,10.0,11.0,30,0.00,,,0.00,WUHU216HW,2013-10-31 20:34:00,
2013-10-31 14:39:00,58.7,26.5,29.76,NE,45,6.0,11.0,29,0.00,,,0.00,WUHU216HW,2013-10-31 20:39:00,
2013-10-31 14:44:00,58.7,27.4,29.76,West,270,8.0,11.0,30,0.00,,,0.00,WUHU216HW,2013-10-31 20:44:00,
2013-10-31 14:49:00,58.7,27.4,29.76,NNW,338,9.0,15.0,30,0.00,,,0.00,WUHU216HW,2013-10-31 20:49:00,
2013-10-31 14:54:00,58.7,27.4,29.76,West,270,7.0,15.0,30,0.00,,,0.00,WUHU216HW,2013-10-31 20:54:00,
2013-10-31 14:59:00,58.5,27.3,29.76,WSW,248,7.0,11.0,30,0.00,,,0.00,WUHU216HW,2013-10-31 20:59:00,
2013-10-31 15:04:00,58.3,26.1,29.75,NNW,338,9.0,13.0,29,0.00,,,0.00,WUHU216HW,2013-10-31 21:04:00,
2013-10-31 15:09:00,58.7,27.4,29.75,West,270,11.0,13.0,30,0.00,,,0.00,WUHU216HW,2013-10-31 21:09:00,
2013-10-31 15:14:00,58.7,26.5,29.76,West,270,5.0,13.0,29,0.00,,,0.00,WUHU216HW,2013-10-31 21:14:00,
2013-10-31 15:19:00,58.5,26.3,29.76,West,270,7.0,16.0,29,0.00,,,0.00,WUHU216HW,2013-10-31 21:19:00,
2013-10-31 15:24:00,58.7,26.5,29.76,NNW,338,12.0,16.0,29,0.00,,,0.00,WUHU216HW,2013-10-31 21:24:00,
2013-10-31 15:29:00,58.7,26.5,29.75,NW,315,9.0,13.0,29,0.00,,,0.00,WUHU216HW,2013-10-31 21:29:00,
2013-10-31 15:34:00,58.7,26.5,29.75,WNW,293,5.0,14.0,29,0.00,,,0.00,WUHU216HW,2013-10-31 21:34:00,
2013-10-31 15:39:00,58.3,26.1,29.75,WNW,293,5.0,15.0,29,0.00,,,0.00,WUHU216HW,2013-10-31 21:39:00,
2013-10-31 15:44:00,58.3,25.1,29.75,NW,315,8.0,15.0,28,0.00,,,0.00,WUHU216HW,2013-10-31 21:44:00,
2013-10-31 15:49:00,58.3,25.1,29.75,NW,315,9.0,14.0,28,0.00,,,0.00,WUHU216HW,2013-10-31 21:49:00,
2013-10-31 15:54:00,58.1,25.0,29.75,West,270,5.0,13.0,28,0.00,,,0.00,WUHU216HW,2013-10-31 21:54:00,
2013-10-31 15:59:00,58.1,25.9,29.75,NW,315,14.0,14.0,29,0.00,,,0.00,WUHU216HW,2013-10-31 21:59:00,
2013-10-31 16:04:00,58.1,25.9,29.75,WNW,293,6.0,14.0,29,0.00,,,0.00,WUHU216HW,2013-10-31 22:04:00,
2013-10-31 16:09:00,58.1,25.0,29.75,NW,315,7.0,14.0,28,0.00,,,0.00,WUHU216HW,2013-10-31 22:09:00,
2013-10-31 16:14:00,58.0,24.9,29.75,NNW,338,4.0,11.0,28,0.00,,,0.00,WUHU216HW,2013-10-31 22:14:00,
2013-10-31 16:19:00,57.6,24.5,29.75,NW,315,10.0,12.0,28,0.00,,,0.00,WUHU216HW,2013-10-31 22:19:00,
2013-10-31 16:24:00,57.6,24.5,29.75,NW,315,12.0,16.0,28,0.00,,,0.00,WUHU216HW,2013-10-31 22:24:00,
2013-10-31 16:29:00,57.4,25.3,29.75,North,0,7.0,16.0,29,0.00,,,0.00,WUHU216HW,2013-10-31 22:29:00,
2013-10-31 16:34:00,57.2,25.1,29.75,NW,315,9.0,14.0,29,0.00,,,0.00,WUHU216HW,2013-10-31 22:34:00,
2013-10-31 16:39:00,57.2,25.1,29.75,WNW,293,5.0,13.0,29,0.00,,,0.00,WUHU216HW,2013-10-31 22:39:00,
2013-10-31 16:44:00,57.1,24.0,29.76,NNW,338,7.0,11.0,28,0.00,,,0.00,WUHU216HW,2013-10-31 22:44:00,
2013-10-31 16:49:00,56.9,24.9,29.75,NNW,338,7.0,13.0,29,0.00,,,0.00,WUHU216HW,2013-10-31 22:49:00,
2013-10-31 16:54:00,56.7,24.7,29.75,West,270,9.0,14.0,29,0.00,,,0.00,WUHU216HW,2013-10-31 22:54:00,
2013-10-31 16:59:00,56.5,24.5,29.76,WNW,293,4.0,14.0,29,0.00,,,0.00,WUHU216HW,2013-10-31 22:59:00,
2013-10-31 17:04:00,56.3,24.3,29.76,NNW,338,11.0,11.0,29,0.00,,,0.00,WUHU216HW,2013-10-31 23:04:00,
2013-10-31 17:09:00,56.3,24.3,29.75,NW,315,9.0,13.0,29,0.00,,,0.00,WUHU216HW,2013-10-31 23:09:00,
2013-10-31 17:14:00,56.2,25.1,29.75,NW,315,9.0,14.0,30,0.00,,,0.00,WUHU216HW,2013-10-31 23:14:00,
2013-10-31 17:19:00,55.8,23.9,29.75,NNE,23,7.0,14.0,29,0.00,,,0.00,WUHU216HW,2013-10-31 23:19:00,
2013-10-31 17:24:00,55.6,24.7,29.75,NW,315,7.0,13.0,30,0.00,,,0.00,WUHU216HW,2013-10-31 23:24:00,
2013-10-31 17:29:00,55.4,24.5,29.75,NNW,338,12.0,13.0,30,0.00,,,0.00,WUHU216HW,2013-10-31 23:29:00,
2013-10-31 17:34:00,55.3,24.3,29.75,North,0,6.0,12.0,30,0.00,,,0.00,WUHU216HW,2013-10-31 23:34:00,
2013-10-31 17:39:00,55.1,24.2,29.75,NW,315,11.0,16.0,30,0.00,,,0.00,WUHU216HW,2013-10-31 23:39:00,
2013-10-31 17:44:00,54.7,24.0,29.75,NW,315,7.0,16.0,30,0.00,,,0.00,WUHU216HW,2013-10-31 23:44:00,
2013-10-31 17:49:00,54.5,24.5,29.75,NW,315,10.0,13.0,31,0.00,,,0.00,WUHU216HW,2013-10-31 23:49:00,
2013-10-31 17:54:00,54.2,24.1,29.74,NNW,338,7.0,11.0,31,0.00,,,0.00,WUHU216HW,2013-10-31 23:54:00,
2013-10-31 17:59:00,54.0,24.0,29.75,NW,315,7.0,11.0,31,0.00,,,0.00,WUHU216HW,2013-10-31 23:59:00,
2013-10-31 18:04:00,53.6,24.4,29.75,West,270,2.0,11.0,32,0.00,,,0.00,WUHU216HW,2013-11-01 00:04:00,
2013-10-31 18:09:00,53.6,24.4,29.75,NW,315,17.0,17.0,32,0.00,,,0.00,WUHU216HW,2013-11-01 00:09:00,
2013-10-31 18:14:00,53.3,24.1,29.75,NNW,338,13.0,17.0,32,0.00,,,0.00,WUHU216HW,2013-11-01 00:14:00,
2013-10-31 18:19:00,53.1,24.0,29.75,East,90,4.0,17.0,32,0.00,,,0.00,WUHU216HW,2013-11-01 00:19:00,
2013-10-31 18:24:00,53.1,24.6,29.75,NNW,338,3.0,13.0,33,0.00,,,0.00,WUHU216HW,2013-11-01 00:24:00,
2013-10-31 18:29:00,52.9,24.5,29.75,NNW,338,6.0,10.0,33,0.00,,,0.00,WUHU216HW,2013-11-01 00:29:00,
2013-10-31 18:34:00,52.7,24.9,29.75,NNE,23,5.0,11.0,34,0.00,,,0.00,WUHU216HW,2013-11-01 00:34:00,
2013-10-31 18:39:00,52.6,24.9,29.75,North,0,2.0,11.0,34,0.00,,,0.00,WUHU216HW,2013-11-01 00:39:00,
2013-10-31 18:44:00,52.2,24.5,29.75,ENE,68,9.0,12.0,34,0.00,,,0.00,WUHU216HW,2013-11-01 00:44:00,
2013-10-31 18:49:00,52.0,25.7,29.76,North,0,4.0,12.0,36,0.00,,,0.00,WUHU216HW,2013-11-01 00:49:00,
2013-10-31 18:54:00,51.7,25.4,29.76,North,0,4.0,9.0,36,0.00,,,0.00,WUHU216HW,2013-11-01 00:54:00,
2013-10-31 18:59:00,51.5,25.2,29.76,NW,315,7.0,8.0,36,0.00,,,0.00,WUHU216HW,2013-11-01 00:59:00,
2013-10-31 19:04:00,51.5,25.2,29.76,NNE,23,5.0,8.0,36,0.00,,,0.00,WUHU216HW,2013-11-01 01:04:00,
2013-10-31 19:09:00,51.3,25.0,29.76,NW,315,5.0,8.0,36,0.00,,,0.00,WUHU216HW,2013-11-01 01:09:00,
2013-10-31 19:14:00,51.1,25.6,29.77,NE,45,6.0,7.0,37,0.00,,,0.00,WUHU216HW,2013-11-01 01:14:00,
2013-10-31 19:19:00,51.1,25.6,29.77,NW,315,3.0,7.0,37,0.00,,,0.00,WUHU216HW,2013-11-01 01:19:00,
2013-10-31 19:24:00,50.9,26.1,29.77,NNW,338,3.0,8.0,38,0.00,,,0.00,WUHU216HW,2013-11-01 01:24:00,
2013-10-31 19:29:00,50.8,25.9,29.77,North,0,2.0,9.0,38,0.00,,,0.00,WUHU216HW,2013-11-01 01:29:00,
2013-10-31 19:34:00,50.8,25.9,29.77,North,0,4.0,9.0,38,0.00,,,0.00,WUHU216HW,2013-11-01 01:34:00,
2013-10-31 19:39:00,50.6,26.5,29.78,NE,45,3.0,9.0,39,0.00,,,0.00,WUHU216HW,2013-11-01 01:39:00,
2013-10-31 19:44:00,50.6,26.5,29.78,NW,315,5.0,7.0,39,0.00,,,0.00,WUHU216HW,2013-11-01 01:44:00,
2013-10-31 19:49:00,50.4,26.3,29.77,North,0,3.0,7.0,39,0.00,,,0.00,WUHU216HW,2013-11-01 01:49:00,
2013-10-31 19:54:00,50.2,26.8,29.77,North,0,2.0,7.0,40,0.00,,,0.00,WUHU216HW,2013-11-01 01:54:00,
2013-10-31 19:59:00,50.0,26.6,29.77,NW,315,3.0,7.0,40,0.00,,,0.00,WUHU216HW,2013-11-01 01:59:00,
2013-10-31 20:04:00,49.9,25.8,29.77,North,0,4.0,6.0,39,0.00,,,0.00,WUHU216HW,2013-11-01 02:04:00,
2013-10-31 20:09:00,49.7,26.3,29.77,North,0,1.0,6.0,40,0.00,,,0.00,WUHU216HW,2013-11-01 02:09:00,
2013-10-31 20:14:00,49.7,26.3,29.77,NNE,23,3.0,6.0,40,0.00,,,0.00,WUHU216HW,2013-11-01 02:14:00,
2013-10-31 20:19:00,49.5,26.2,29.77,NE,45,6.0,6.0,40,0.00,,,0.00,WUHU216HW,2013-11-01 02:19:00,
2013-10-31 20:24:00,49.5,26.7,29.78,NW,315,3.0,6.0,41,0.00,,,0.00,WUHU216HW,2013-11-01 02:24:00,
2013-10-31 20:29:00,49.3,26.6,29.77,NW,315,3.0,7.0,41,0.00,,,0.00,WUHU216HW,2013-11-01 02:29:00,
2013-10-31 20:34:00,49.3,26.6,29.77,NW,315,5.0,7.0,41,0.00,,,0.00,WUHU216HW,2013-11-01 02:34:00,
2013-10-31 20:39:00,49.1,26.9,29.77,NW,315,3.0,7.0,42,0.00,,,0.00,WUHU216HW,2013-11-01 02:39:00,
2013-10-31 20:44:00,49.0,26.7,29.77,NW,315,4.0,11.0,42,0.00,,,0.00,WUHU216HW,2013-11-01 02:44:00,
2013-10-31 20:49:00,49.0,26.7,29.77,North,0,3.0,11.0,42,0.00,,,0.00,WUHU216HW,2013-11-01 02:49:00,
2013-10-31 20:54:00,48.8,26.7,29.77,NW,315,7.0,11.0,42,0.00,,,0.00,WUHU216HW,2013-11-01 02:54:00,
2013-10-31 20:59:00,48.8,26.7,29.77,NW,315,6.0,11.0,42,0.00,,,0.00,WUHU216HW,2013-11-01 02:59:00,
2013-10-31 21:04:00,48.6,26.5,29.77,NNW,338,4.0,8.0,42,0.00,,,0.00,WUHU216HW,2013-11-01 03:04:00,
2013-10-31 21:09:00,48.4,26.8,29.78,NW,315,5.0,7.0,43,0.00,,,0.00,WUHU216HW,2013-11-01 03:09:00,
2013-10-31 21:14:00,48.2,26.6,29.78,NW,315,3.0,7.0,43,0.00,,,0.00,WUHU216HW,2013-11-01 03:14:00,
2013-10-31 21:19:00,48.1,27.0,29.78,NNW,338,2.0,7.0,44,0.00,,,0.00,WUHU216HW,2013-11-01 03:19:00,
2013-10-31 21:24:00,47.9,26.8,29.79,NW,315,6.0,7.0,44,0.00,,,0.00,WUHU216HW,2013-11-01 03:24:00,
2013-10-31 21:29:00,47.7,26.7,29.79,NNW,338,7.0,9.0,44,0.00,,,0.00,WUHU216HW,2013-11-01 03:29:00,
2013-10-31 21:34:00,47.5,26.6,29.79,NW,315,3.0,9.0,44,0.00,,,0.00,WUHU216HW,2013-11-01 03:34:00,
2013-10-31 21:39:00,47.5,26.6,29.79,NNW,338,13.0,13.0,44,0.00,,,0.00,WUHU216HW,2013-11-01 03:39:00,
2013-10-31 21:44:00,47.5,26.6,29.79,SW,225,5.0,13.0,44,0.00,,,0.00,WUHU216HW,2013-11-01 03:44:00,
2013-10-31 21:49:00,47.3,26.4,29.80,NW,315,6.0,9.0,44,0.00,,,0.00,WUHU216HW,2013-11-01 03:49:00,
2013-10-31 21:54:00,47.3,26.4,29.80,NNW,338,5.0,9.0,44,0.00,,,0.00,WUHU216HW,2013-11-01 03:54:00,
2013-10-31 21:59:00,47.2,26.2,29.80,NNW,338,4.0,8.0,44,0.00,,,0.00,WUHU216HW,2013-11-01 03:59:00,
2013-10-31 22:01:00,47.2,26.2,29.80,NNW,338,2.0,8.0,44,0.00,,,0.00,WUHU216HW,2013-11-01 04:01:00,
2013-10-31 22:06:00,47.0,26.0,29.80,ENE,68,0.0,8.0,44,0.00,,,0.00,WUHU216HW,2013-11-01 04:06:00,
2013-10-31 22:11:00,46.8,25.9,29.80,NNW,338,1.0,6.0,44,0.00,,,0.00,WUHU216HW,2013-11-01 04:11:00,
2013-10-31 22:16:00,46.6,26.3,29.81,NW,315,1.0,5.0,45,0.00,,,0.00,WUHU216HW,2013-11-01 04:16:00,
2013-10-31 22:21:00,46.4,26.1,29.80,NNW,338,0.0,5.0,45,0.00,,,0.00,WUHU216HW,2013-11-01 04:21:00,
2013-10-31 22:26:00,46.1,25.7,29.81,West,270,1.0,2.0,45,0.00,,,0.00,WUHU216HW,2013-11-01 04:26:00,
2013-10-31 22:31:00,45.9,26.2,29.81,SW,225,1.0,2.0,46,0.00,,,0.00,WUHU216HW,2013-11-01 04:31:00,
2013-10-31 22:36:00,45.5,25.8,29.81,South,180,0.0,1.0,46,0.00,,,0.00,WUHU216HW,2013-11-01 04:36:00,
2013-10-31 22:41:00,45.0,26.5,29.81,SSW,203,1.0,2.0,48,0.00,,,0.00,WUHU216HW,2013-11-01 04:41:00,
2013-10-31 22:46:00,44.6,26.1,29.81,SE,135,0.0,2.0,48,0.00,,,0.00,WUHU216HW,2013-11-01 04:46:00,
2013-10-31 22:51:00,44.5,25.9,29.81,North,0,2.0,5.0,48,0.00,,,0.00,WUHU216HW,2013-11-01 04:51:00,
2013-10-31 22:56:00,44.6,26.1,29.81,West,270,3.0,5.0,48,0.00,,,0.00,WUHU216HW,2013-11-01 04:56:00,
2013-10-31 23:01:00,45.0,27.0,29.81,WNW,293,8.0,8.0,49,0.00,,,0.00,WUHU216HW,2013-11-01 05:01:00,
2013-10-31 23:06:00,45.2,26.6,29.81,WNW,293,6.0,11.0,48,0.00,,,0.00,WUHU216HW,2013-11-01 05:06:00,
2013-10-31 23:11:00,45.4,26.7,29.81,WNW,293,3.0,11.0,48,0.00,,,0.00,WUHU216HW,2013-11-01 05:11:00,
2013-10-31 23:16:00,45.4,26.2,29.81,NNW,338,3.0,7.0,47,0.00,,,0.00,WUHU216HW,2013-11-01 05:16:00,
2013-10-31 23:21:00,45.2,26.6,29.81,NE,45,7.0,7.0,48,0.00,,,0.00,WUHU216HW,2013-11-01 05:21:00,
2013-10-31 23:26:00,45.0,26.5,29.81,West,270,3.0,8.0,48,0.00,,,0.00,WUHU216HW,2013-11-01 05:26:00,
2013-10-31 23:31:00,45.0,26.5,29.81,NW,315,6.0,8.0,48,0.00,,,0.00,WUHU216HW,2013-11-01 05:31:00,
2013-10-31 23:36:00,44.8,26.3,29.81,WNW,293,3.0,6.0,48,0.00,,,0.00,WUHU216HW,2013-11-01 05:36:00,
2013-10-31 23:41:00,44.8,26.8,29.81,West,270,5.0,8.0,49,0.00,,,0.00,WUHU216HW,2013-11-01 05:41:00,
2013-10-31 23:45:00,44.6,26.6,29.81,NW,315,4.0,8.0,49,0.00,,,0.00,WUHU216HW,2013-11-01 05:45:00,
2013-10-31 23:50:00,44.6,26.6,29.81,WSW,248,5.0,9.0,49,0.00,,,0.00,WUHU216HW,2013-11-01 05:50:00,
2013-10-31 23:55:00,44.5,26.5,29.81,WNW,293,3.0,9.0,49,0.00,,,0.00,WUHU216HW,2013-11-01 05:55:00,